sensor_id;sensor_type;location;lat;lon;timestamp;P1;durP1;ratioP1;P2;durP2;ratioP2
72125;SDS011;59999;51.676;22.650;2023-11-21T00:00:49;21.80;;;7.35;;
72125;SDS011;59999;51.676;22.650;2023-11-21T00:03:35;18.40;;;6.40;;
72125;SDS011;59999;51.676;22.650;2023-11-21T00:06:01;16.30;;;5.95;;
72125;SDS011;59999;51.676;22.650;2023-11-21T00:08:27;17.52;;;5.95;;
72125;SDS011;59999;51.676;22.650;2023-11-21T00:10:53;18.67;;;6.67;;
72125;SDS011;59999;51.676;22.650;2023-11-21T00:13:20;22.33;;;8.07;;
72125;SDS011;59999;51.676;22.650;2023-11-21T00:15:46;18.95;;;7.13;;
72125;SDS011;59999;51.676;22.650;2023-11-21T00:18:11;19.40;;;7.33;;
72125;SDS011;59999;51.676;22.650;2023-11-21T00:20:37;16.48;;;6.70;;
72125;SDS011;59999;51.676;22.650;2023-11-21T00:23:03;16.17;;;5.90;;
72125;SDS011;59999;51.676;22.650;2023-11-21T00:25:29;17.63;;;5.90;;
72125;SDS011;59999;51.676;22.650;2023-11-21T00:27:56;16.23;;;5.63;;
72125;SDS011;59999;51.676;22.650;2023-11-21T00:30:22;14.02;;;5.55;;
72125;SDS011;59999;51.676;22.650;2023-11-21T00:32:48;14.57;;;5.13;;
72125;SDS011;59999;51.676;22.650;2023-11-21T00:35:13;16.92;;;6.00;;
72125;SDS011;59999;51.676;22.650;2023-11-21T00:37:39;16.47;;;5.57;;
72125;SDS011;59999;51.676;22.650;2023-11-21T00:40:05;13.85;;;5.30;;
72125;SDS011;59999;51.676;22.650;2023-11-21T00:42:32;12.45;;;4.57;;
72125;SDS011;59999;51.676;22.650;2023-11-21T00:44:59;16.80;;;5.93;;
72125;SDS011;59999;51.676;22.650;2023-11-21T00:47:25;12.85;;;4.82;;
72125;SDS011;59999;51.676;22.650;2023-11-21T00:49:51;14.30;;;4.80;;
72125;SDS011;59999;51.676;22.650;2023-11-21T00:52:16;14.73;;;5.38;;
72125;SDS011;59999;51.676;22.650;2023-11-21T00:54:42;12.18;;;4.50;;
72125;SDS011;59999;51.676;22.650;2023-11-21T00:57:08;14.83;;;5.27;;
72125;SDS011;59999;51.676;22.650;2023-11-21T00:59:34;13.82;;;4.68;;
72125;SDS011;59999;51.676;22.650;2023-11-21T01:02:00;12.13;;;4.80;;
72125;SDS011;59999;51.676;22.650;2023-11-21T01:04:27;15.30;;;6.20;;
72125;SDS011;59999;51.676;22.650;2023-11-21T01:06:53;16.83;;;7.05;;
72125;SDS011;59999;51.676;22.650;2023-11-21T01:09:19;14.10;;;5.80;;
72125;SDS011;59999;51.676;22.650;2023-11-21T01:11:44;13.80;;;5.80;;
72125;SDS011;59999;51.676;22.650;2023-11-21T01:14:10;14.55;;;5.68;;
72125;SDS011;59999;51.676;22.650;2023-11-21T01:16:36;15.87;;;6.10;;
72125;SDS011;59999;51.676;22.650;2023-11-21T01:19:02;15.98;;;6.10;;
72125;SDS011;59999;51.676;22.650;2023-11-21T01:21:27;19.07;;;7.43;;
72125;SDS011;59999;51.676;22.650;2023-11-21T01:23:53;17.65;;;7.13;;
72125;SDS011;59999;51.676;22.650;2023-11-21T01:26:20;15.88;;;5.82;;
72125;SDS011;59999;51.676;22.650;2023-11-21T01:28:46;21.23;;;7.87;;
72125;SDS011;59999;51.676;22.650;2023-11-21T01:31:17;18.02;;;7.45;;
72125;SDS011;59999;51.676;22.650;2023-11-21T01:33:43;20.23;;;6.70;;
72125;SDS011;59999;51.676;22.650;2023-11-21T01:36:09;18.65;;;6.75;;
72125;SDS011;59999;51.676;22.650;2023-11-21T01:38:36;18.52;;;7.45;;
72125;SDS011;59999;51.676;22.650;2023-11-21T01:41:01;17.00;;;7.03;;
72125;SDS011;59999;51.676;22.650;2023-11-21T01:43:28;20.83;;;7.85;;
72125;SDS011;59999;51.676;22.650;2023-11-21T01:45:56;19.63;;;7.40;;
72125;SDS011;59999;51.676;22.650;2023-11-21T01:48:22;20.52;;;7.78;;
72125;SDS011;59999;51.676;22.650;2023-11-21T01:50:49;20.30;;;7.30;;
72125;SDS011;59999;51.676;22.650;2023-11-21T01:53:15;22.25;;;7.65;;
72125;SDS011;59999;51.676;22.650;2023-11-21T01:55:41;17.27;;;6.32;;
72125;SDS011;59999;51.676;22.650;2023-11-21T01:58:08;17.07;;;6.10;;
72125;SDS011;59999;51.676;22.650;2023-11-21T02:00:34;16.90;;;6.63;;
72125;SDS011;59999;51.676;22.650;2023-11-21T02:03:00;20.42;;;7.15;;
72125;SDS011;59999;51.676;22.650;2023-11-21T02:05:26;18.15;;;6.35;;
72125;SDS011;59999;51.676;22.650;2023-11-21T02:07:52;17.67;;;6.13;;
72125;SDS011;59999;51.676;22.650;2023-11-21T02:10:18;18.25;;;7.47;;
72125;SDS011;59999;51.676;22.650;2023-11-21T02:12:48;18.33;;;7.05;;
72125;SDS011;59999;51.676;22.650;2023-11-21T02:15:18;17.47;;;6.43;;
72125;SDS011;59999;51.676;22.650;2023-11-21T02:17:49;16.30;;;6.55;;
72125;SDS011;59999;51.676;22.650;2023-11-21T02:20:16;17.98;;;7.20;;
72125;SDS011;59999;51.676;22.650;2023-11-21T02:22:52;21.30;;;8.52;;
72125;SDS011;59999;51.676;22.650;2023-11-21T02:25:29;19.65;;;7.40;;
72125;SDS011;59999;51.676;22.650;2023-11-21T02:28:02;18.67;;;6.80;;
72125;SDS011;59999;51.676;22.650;2023-11-21T02:30:28;19.00;;;7.20;;
72125;SDS011;59999;51.676;22.650;2023-11-21T02:32:57;23.40;;;10.35;;
72125;SDS011;59999;51.676;22.650;2023-11-21T02:35:23;19.73;;;6.45;;
72125;SDS011;59999;51.676;22.650;2023-11-21T02:37:51;20.98;;;8.20;;
72125;SDS011;59999;51.676;22.650;2023-11-21T02:40:17;16.37;;;7.23;;
72125;SDS011;59999;51.676;22.650;2023-11-21T02:42:46;18.05;;;7.13;;
72125;SDS011;59999;51.676;22.650;2023-11-21T02:45:13;23.88;;;9.05;;
72125;SDS011;59999;51.676;22.650;2023-11-21T02:47:40;22.73;;;8.45;;
72125;SDS011;59999;51.676;22.650;2023-11-21T02:50:05;24.87;;;9.03;;
72125;SDS011;59999;51.676;22.650;2023-11-21T02:52:34;25.73;;;10.27;;
72125;SDS011;59999;51.676;22.650;2023-11-21T02:55:01;23.05;;;8.73;;
72125;SDS011;59999;51.676;22.650;2023-11-21T02:57:27;22.23;;;8.35;;
72125;SDS011;59999;51.676;22.650;2023-11-21T02:59:53;22.60;;;8.40;;
72125;SDS011;59999;51.676;22.650;2023-11-21T03:02:20;21.98;;;7.40;;
72125;SDS011;59999;51.676;22.650;2023-11-21T03:04:46;20.88;;;6.40;;
72125;SDS011;59999;51.676;22.650;2023-11-21T03:07:13;24.30;;;7.83;;
72125;SDS011;59999;51.676;22.650;2023-11-21T03:09:39;21.02;;;7.07;;
72125;SDS011;59999;51.676;22.650;2023-11-21T03:12:05;14.80;;;6.13;;
72125;SDS011;59999;51.676;22.650;2023-11-21T03:14:31;16.88;;;6.38;;
72125;SDS011;59999;51.676;22.650;2023-11-21T03:16:57;18.02;;;6.68;;
72125;SDS011;59999;51.676;22.650;2023-11-21T03:19:22;18.67;;;6.88;;
72125;SDS011;59999;51.676;22.650;2023-11-21T03:21:49;19.35;;;6.13;;
72125;SDS011;59999;51.676;22.650;2023-11-21T03:24:15;17.50;;;6.90;;
72125;SDS011;59999;51.676;22.650;2023-11-21T03:26:44;18.73;;;6.47;;
72125;SDS011;59999;51.676;22.650;2023-11-21T03:29:10;16.75;;;6.03;;
72125;SDS011;59999;51.676;22.650;2023-11-21T03:31:36;17.67;;;6.10;;
72125;SDS011;59999;51.676;22.650;2023-11-21T03:34:01;21.87;;;7.97;;
72125;SDS011;59999;51.676;22.650;2023-11-21T03:36:27;18.48;;;6.72;;
72125;SDS011;59999;51.676;22.650;2023-11-21T03:38:53;20.07;;;7.63;;
72125;SDS011;59999;51.676;22.650;2023-11-21T03:41:19;17.70;;;7.10;;
72125;SDS011;59999;51.676;22.650;2023-11-21T03:43:44;16.57;;;6.60;;
72125;SDS011;59999;51.676;22.650;2023-11-21T03:46:10;16.25;;;6.15;;
72125;SDS011;59999;51.676;22.650;2023-11-21T03:48:37;19.58;;;7.32;;
72125;SDS011;59999;51.676;22.650;2023-11-21T03:51:04;19.05;;;7.35;;
72125;SDS011;59999;51.676;22.650;2023-11-21T03:53:29;17.10;;;6.43;;
72125;SDS011;59999;51.676;22.650;2023-11-21T03:55:55;19.75;;;6.32;;
72125;SDS011;59999;51.676;22.650;2023-11-21T03:58:21;17.97;;;6.90;;
72125;SDS011;59999;51.676;22.650;2023-11-21T04:00:47;18.30;;;6.68;;
72125;SDS011;59999;51.676;22.650;2023-11-21T04:03:14;18.77;;;6.43;;
72125;SDS011;59999;51.676;22.650;2023-11-21T04:05:40;19.03;;;7.80;;
72125;SDS011;59999;51.676;22.650;2023-11-21T04:08:06;21.77;;;7.45;;
72125;SDS011;59999;51.676;22.650;2023-11-21T04:10:32;19.20;;;7.45;;
72125;SDS011;59999;51.676;22.650;2023-11-21T04:12:58;19.43;;;7.33;;
72125;SDS011;59999;51.676;22.650;2023-11-21T04:15:26;19.45;;;7.38;;
72125;SDS011;59999;51.676;22.650;2023-11-21T04:17:51;21.13;;;8.40;;
72125;SDS011;59999;51.676;22.650;2023-11-21T04:20:17;17.40;;;6.50;;
72125;SDS011;59999;51.676;22.650;2023-11-21T04:22:43;20.05;;;6.65;;
72125;SDS011;59999;51.676;22.650;2023-11-21T04:25:10;20.70;;;7.77;;
72125;SDS011;59999;51.676;22.650;2023-11-21T04:27:39;22.88;;;8.43;;
72125;SDS011;59999;51.676;22.650;2023-11-21T04:30:05;19.23;;;7.13;;
72125;SDS011;59999;51.676;22.650;2023-11-21T04:32:33;20.88;;;7.97;;
72125;SDS011;59999;51.676;22.650;2023-11-21T04:34:59;17.77;;;6.53;;
72125;SDS011;59999;51.676;22.650;2023-11-21T04:37:24;22.17;;;7.77;;
72125;SDS011;59999;51.676;22.650;2023-11-21T04:39:50;23.38;;;7.97;;
72125;SDS011;59999;51.676;22.650;2023-11-21T04:42:17;20.58;;;7.32;;
72125;SDS011;59999;51.676;22.650;2023-11-21T04:44:43;13.17;;;5.07;;
72125;SDS011;59999;51.676;22.650;2023-11-21T04:47:09;18.15;;;6.57;;
72125;SDS011;59999;51.676;22.650;2023-11-21T04:49:35;17.88;;;6.82;;
72125;SDS011;59999;51.676;22.650;2023-11-21T04:52:01;15.93;;;6.17;;
72125;SDS011;59999;51.676;22.650;2023-11-21T04:54:27;12.55;;;4.68;;
72125;SDS011;59999;51.676;22.650;2023-11-21T04:56:53;21.13;;;8.15;;
72125;SDS011;59999;51.676;22.650;2023-11-21T04:59:18;20.30;;;7.32;;
72125;SDS011;59999;51.676;22.650;2023-11-21T05:01:44;18.85;;;7.60;;
72125;SDS011;59999;51.676;22.650;2023-11-21T05:04:10;20.10;;;7.55;;
72125;SDS011;59999;51.676;22.650;2023-11-21T05:06:35;18.83;;;7.32;;
72125;SDS011;59999;51.676;22.650;2023-11-21T05:09:01;17.73;;;7.50;;
72125;SDS011;59999;51.676;22.650;2023-11-21T05:11:27;21.45;;;8.02;;
72125;SDS011;59999;51.676;22.650;2023-11-21T05:13:54;19.60;;;6.97;;
72125;SDS011;59999;51.676;22.650;2023-11-21T05:16:25;21.38;;;7.05;;
72125;SDS011;59999;51.676;22.650;2023-11-21T05:18:53;19.75;;;6.68;;
72125;SDS011;59999;51.676;22.650;2023-11-21T05:21:18;18.53;;;7.07;;
72125;SDS011;59999;51.676;22.650;2023-11-21T05:23:46;16.73;;;6.80;;
72125;SDS011;59999;51.676;22.650;2023-11-21T05:26:12;19.92;;;7.25;;
72125;SDS011;59999;51.676;22.650;2023-11-21T05:28:37;18.20;;;6.10;;
72125;SDS011;59999;51.676;22.650;2023-11-21T05:31:03;17.40;;;6.55;;
72125;SDS011;59999;51.676;22.650;2023-11-21T05:33:29;18.63;;;7.03;;
72125;SDS011;59999;51.676;22.650;2023-11-21T05:35:55;20.33;;;6.78;;
72125;SDS011;59999;51.676;22.650;2023-11-21T05:38:21;15.33;;;6.07;;
72125;SDS011;59999;51.676;22.650;2023-11-21T05:40:47;17.00;;;6.38;;
72125;SDS011;59999;51.676;22.650;2023-11-21T05:43:13;16.85;;;5.90;;
72125;SDS011;59999;51.676;22.650;2023-11-21T05:45:40;17.92;;;6.65;;
72125;SDS011;59999;51.676;22.650;2023-11-21T05:48:06;14.73;;;5.13;;
72125;SDS011;59999;51.676;22.650;2023-11-21T05:50:32;15.80;;;5.93;;
72125;SDS011;59999;51.676;22.650;2023-11-21T05:52:58;16.88;;;6.50;;
72125;SDS011;59999;51.676;22.650;2023-11-21T05:55:25;15.00;;;5.33;;
72125;SDS011;59999;51.676;22.650;2023-11-21T05:57:51;17.23;;;6.43;;
72125;SDS011;59999;51.676;22.650;2023-11-21T06:00:17;12.73;;;4.55;;
72125;SDS011;59999;51.676;22.650;2023-11-21T06:02:46;16.30;;;5.80;;
72125;SDS011;59999;51.676;22.650;2023-11-21T06:05:17;13.48;;;3.90;;
72125;SDS011;59999;51.676;22.650;2023-11-21T06:07:44;13.13;;;5.05;;
72125;SDS011;59999;51.676;22.650;2023-11-21T06:10:10;14.77;;;5.20;;
72125;SDS011;59999;51.676;22.650;2023-11-21T06:12:38;13.40;;;4.80;;
72125;SDS011;59999;51.676;22.650;2023-11-21T06:15:06;14.43;;;5.65;;
72125;SDS011;59999;51.676;22.650;2023-11-21T06:17:34;18.58;;;6.72;;
72125;SDS011;59999;51.676;22.650;2023-11-21T06:20:07;15.30;;;5.83;;
72125;SDS011;59999;51.676;22.650;2023-11-21T06:22:35;14.48;;;4.75;;
72125;SDS011;59999;51.676;22.650;2023-11-21T06:25:02;16.08;;;5.55;;
72125;SDS011;59999;51.676;22.650;2023-11-21T06:27:33;13.95;;;5.30;;
72125;SDS011;59999;51.676;22.650;2023-11-21T06:30:01;16.08;;;5.78;;
72125;SDS011;59999;51.676;22.650;2023-11-21T06:32:27;17.10;;;6.70;;
72125;SDS011;59999;51.676;22.650;2023-11-21T06:34:57;16.73;;;5.68;;
72125;SDS011;59999;51.676;22.650;2023-11-21T06:37:26;17.75;;;6.28;;
72125;SDS011;59999;51.676;22.650;2023-11-21T06:39:52;15.93;;;5.63;;
72125;SDS011;59999;51.676;22.650;2023-11-21T06:42:18;15.77;;;5.60;;
72125;SDS011;59999;51.676;22.650;2023-11-21T06:44:45;15.70;;;5.10;;
72125;SDS011;59999;51.676;22.650;2023-11-21T06:47:11;19.67;;;7.15;;
72125;SDS011;59999;51.676;22.650;2023-11-21T06:49:37;19.48;;;6.93;;
72125;SDS011;59999;51.676;22.650;2023-11-21T06:52:04;18.05;;;7.38;;
72125;SDS011;59999;51.676;22.650;2023-11-21T06:54:33;20.50;;;6.53;;
72125;SDS011;59999;51.676;22.650;2023-11-21T06:57:00;18.42;;;5.57;;
72125;SDS011;59999;51.676;22.650;2023-11-21T06:59:28;24.80;;;9.20;;
72125;SDS011;59999;51.676;22.650;2023-11-21T07:01:54;19.20;;;6.60;;
72125;SDS011;59999;51.676;22.650;2023-11-21T07:04:20;22.17;;;8.40;;
72125;SDS011;59999;51.676;22.650;2023-11-21T07:06:46;23.20;;;7.85;;
72125;SDS011;59999;51.676;22.650;2023-11-21T07:09:11;28.87;;;10.17;;
72125;SDS011;59999;51.676;22.650;2023-11-21T07:11:38;19.08;;;6.78;;
72125;SDS011;59999;51.676;22.650;2023-11-21T07:14:04;23.65;;;7.57;;
72125;SDS011;59999;51.676;22.650;2023-11-21T07:16:34;24.40;;;8.20;;
72125;SDS011;59999;51.676;22.650;2023-11-21T07:19:05;20.23;;;6.00;;
72125;SDS011;59999;51.676;22.650;2023-11-21T07:21:32;19.20;;;5.97;;
72125;SDS011;59999;51.676;22.650;2023-11-21T07:23:59;26.33;;;8.57;;
72125;SDS011;59999;51.676;22.650;2023-11-21T07:26:26;20.85;;;6.80;;
72125;SDS011;59999;51.676;22.650;2023-11-21T07:28:53;18.77;;;6.07;;
72125;SDS011;59999;51.676;22.650;2023-11-21T07:31:19;17.25;;;6.25;;
72125;SDS011;59999;51.676;22.650;2023-11-21T07:33:47;19.50;;;5.73;;
72125;SDS011;59999;51.676;22.650;2023-11-21T07:36:14;17.33;;;5.72;;
72125;SDS011;59999;51.676;22.650;2023-11-21T07:38:41;20.23;;;7.20;;
72125;SDS011;59999;51.676;22.650;2023-11-21T07:41:08;19.70;;;7.83;;
72125;SDS011;59999;51.676;22.650;2023-11-21T07:43:35;18.98;;;6.40;;
72125;SDS011;59999;51.676;22.650;2023-11-21T07:46:01;18.73;;;5.80;;
72125;SDS011;59999;51.676;22.650;2023-11-21T07:48:30;18.27;;;6.47;;
72125;SDS011;59999;51.676;22.650;2023-11-21T07:50:57;18.77;;;6.22;;
72125;SDS011;59999;51.676;22.650;2023-11-21T07:53:26;20.90;;;7.13;;
72125;SDS011;59999;51.676;22.650;2023-11-21T07:55:56;16.95;;;5.65;;
72125;SDS011;59999;51.676;22.650;2023-11-21T07:58:22;18.15;;;5.88;;
72125;SDS011;59999;51.676;22.650;2023-11-21T08:00:49;19.58;;;7.05;;
72125;SDS011;59999;51.676;22.650;2023-11-21T08:03:16;18.90;;;6.60;;
72125;SDS011;59999;51.676;22.650;2023-11-21T08:05:42;21.20;;;8.10;;
72125;SDS011;59999;51.676;22.650;2023-11-21T08:08:08;18.38;;;6.75;;
72125;SDS011;59999;51.676;22.650;2023-11-21T08:10:34;18.77;;;7.50;;
72125;SDS011;59999;51.676;22.650;2023-11-21T08:13:05;19.25;;;6.90;;
72125;SDS011;59999;51.676;22.650;2023-11-21T08:15:31;15.73;;;5.95;;
72125;SDS011;59999;51.676;22.650;2023-11-21T08:17:58;17.07;;;6.23;;
72125;SDS011;59999;51.676;22.650;2023-11-21T08:20:27;18.65;;;6.38;;
72125;SDS011;59999;51.676;22.650;2023-11-21T08:22:53;19.98;;;7.03;;
72125;SDS011;59999;51.676;22.650;2023-11-21T08:25:22;20.40;;;7.17;;
72125;SDS011;59999;51.676;22.650;2023-11-21T08:27:48;17.00;;;7.07;;
72125;SDS011;59999;51.676;22.650;2023-11-21T08:30:14;18.35;;;6.90;;
72125;SDS011;59999;51.676;22.650;2023-11-21T08:32:42;22.80;;;8.43;;
72125;SDS011;59999;51.676;22.650;2023-11-21T08:35:08;20.23;;;7.60;;
72125;SDS011;59999;51.676;22.650;2023-11-21T08:37:34;23.42;;;8.27;;
72125;SDS011;59999;51.676;22.650;2023-11-21T08:40:05;17.70;;;6.70;;
72125;SDS011;59999;51.676;22.650;2023-11-21T08:42:35;21.00;;;7.03;;
72125;SDS011;59999;51.676;22.650;2023-11-21T08:45:01;18.83;;;6.50;;
72125;SDS011;59999;51.676;22.650;2023-11-21T08:47:26;20.27;;;7.95;;
72125;SDS011;59999;51.676;22.650;2023-11-21T08:49:53;19.70;;;7.38;;
72125;SDS011;59999;51.676;22.650;2023-11-21T08:52:19;18.20;;;7.20;;
72125;SDS011;59999;51.676;22.650;2023-11-21T08:54:48;19.40;;;7.50;;
72125;SDS011;59999;51.676;22.650;2023-11-21T08:57:23;21.42;;;7.93;;
72125;SDS011;59999;51.676;22.650;2023-11-21T08:59:49;23.17;;;9.00;;
72125;SDS011;59999;51.676;22.650;2023-11-21T09:02:20;21.50;;;8.32;;
72125;SDS011;59999;51.676;22.650;2023-11-21T09:04:49;23.80;;;8.70;;
72125;SDS011;59999;51.676;22.650;2023-11-21T09:07:16;15.95;;;5.70;;
72125;SDS011;59999;51.676;22.650;2023-11-21T09:09:42;18.37;;;7.77;;
72125;SDS011;59999;51.676;22.650;2023-11-21T09:12:07;20.15;;;7.93;;
72125;SDS011;59999;51.676;22.650;2023-11-21T09:14:37;22.02;;;8.20;;
72125;SDS011;59999;51.676;22.650;2023-11-21T09:17:04;22.40;;;8.00;;
72125;SDS011;59999;51.676;22.650;2023-11-21T09:19:39;23.13;;;8.25;;
72125;SDS011;59999;51.676;22.650;2023-11-21T09:22:10;21.00;;;7.65;;
72125;SDS011;59999;51.676;22.650;2023-11-21T09:24:36;26.52;;;8.50;;
72125;SDS011;59999;51.676;22.650;2023-11-21T09:27:03;24.23;;;9.27;;
72125;SDS011;59999;51.676;22.650;2023-11-21T09:29:30;22.02;;;8.40;;
72125;SDS011;59999;51.676;22.650;2023-11-21T09:31:57;22.48;;;8.35;;
72125;SDS011;59999;51.676;22.650;2023-11-21T09:34:25;23.45;;;8.30;;
72125;SDS011;59999;51.676;22.650;2023-11-21T09:36:51;25.17;;;9.63;;
72125;SDS011;59999;51.676;22.650;2023-11-21T09:39:17;19.67;;;8.13;;
72125;SDS011;59999;51.676;22.650;2023-11-21T09:41:46;22.02;;;8.35;;
72125;SDS011;59999;51.676;22.650;2023-11-21T09:44:16;24.35;;;9.43;;
72125;SDS011;59999;51.676;22.650;2023-11-21T09:46:44;22.40;;;8.65;;
72125;SDS011;59999;51.676;22.650;2023-11-21T09:49:14;19.58;;;7.03;;
72125;SDS011;59999;51.676;22.650;2023-11-21T09:51:43;23.80;;;8.70;;
72125;SDS011;59999;51.676;22.650;2023-11-21T09:54:13;24.05;;;9.20;;
72125;SDS011;59999;51.676;22.650;2023-11-21T09:56:41;24.30;;;8.68;;
72125;SDS011;59999;51.676;22.650;2023-11-21T09:59:10;22.05;;;8.27;;
72125;SDS011;59999;51.676;22.650;2023-11-21T10:01:38;21.15;;;8.35;;
72125;SDS011;59999;51.676;22.650;2023-11-21T10:04:04;26.50;;;9.00;;
72125;SDS011;59999;51.676;22.650;2023-11-21T10:06:39;24.55;;;9.05;;
72125;SDS011;59999;51.676;22.650;2023-11-21T10:09:12;23.70;;;9.52;;
72125;SDS011;59999;51.676;22.650;2023-11-21T10:11:42;28.10;;;9.88;;
72125;SDS011;59999;51.676;22.650;2023-11-21T10:14:12;31.08;;;11.95;;
72125;SDS011;59999;51.676;22.650;2023-11-21T10:16:39;30.17;;;10.90;;
72125;SDS011;59999;51.676;22.650;2023-11-21T10:19:08;28.60;;;10.30;;
72125;SDS011;59999;51.676;22.650;2023-11-21T10:21:35;29.92;;;13.05;;
72125;SDS011;59999;51.676;22.650;2023-11-21T10:24:02;30.95;;;11.55;;
72125;SDS011;59999;51.676;22.650;2023-11-21T10:26:28;27.27;;;10.95;;
72125;SDS011;59999;51.676;22.650;2023-11-21T10:29:00;28.53;;;11.07;;
72125;SDS011;59999;51.676;22.650;2023-11-21T10:31:29;30.17;;;10.82;;
72125;SDS011;59999;51.676;22.650;2023-11-21T10:34:14;27.10;;;10.00;;
72125;SDS011;59999;51.676;22.650;2023-11-21T10:36:41;31.65;;;13.40;;
72125;SDS011;59999;51.676;22.650;2023-11-21T10:39:07;25.75;;;8.73;;
72125;SDS011;59999;51.676;22.650;2023-11-21T10:41:33;30.57;;;10.83;;
72125;SDS011;59999;51.676;22.650;2023-11-21T10:44:03;27.95;;;11.02;;
72125;SDS011;59999;51.676;22.650;2023-11-21T10:46:32;28.55;;;10.05;;
72125;SDS011;59999;51.676;22.650;2023-11-21T10:48:59;27.40;;;9.80;;
72125;SDS011;59999;51.676;22.650;2023-11-21T10:51:25;25.77;;;9.53;;
72125;SDS011;59999;51.676;22.650;2023-11-21T10:53:51;24.85;;;9.77;;
72125;SDS011;59999;51.676;22.650;2023-11-21T10:56:18;24.30;;;8.68;;
72125;SDS011;59999;51.676;22.650;2023-11-21T10:58:48;26.60;;;9.80;;
72125;SDS011;59999;51.676;22.650;2023-11-21T11:01:16;25.55;;;10.27;;
72125;SDS011;59999;51.676;22.650;2023-11-21T11:03:44;24.93;;;9.20;;
72125;SDS011;59999;51.676;22.650;2023-11-21T11:06:10;26.90;;;10.15;;
72125;SDS011;59999;51.676;22.650;2023-11-21T11:08:38;25.33;;;9.65;;
72125;SDS011;59999;51.676;22.650;2023-11-21T11:11:07;32.58;;;11.60;;
72125;SDS011;59999;51.676;22.650;2023-11-21T11:13:35;26.95;;;10.40;;
72125;SDS011;59999;51.676;22.650;2023-11-21T11:16:02;29.00;;;11.07;;
72125;SDS011;59999;51.676;22.650;2023-11-21T11:18:32;29.90;;;11.27;;
72125;SDS011;59999;51.676;22.650;2023-11-21T11:21:01;25.60;;;9.30;;
72125;SDS011;59999;51.676;22.650;2023-11-21T11:29:08;25.67;;;9.10;;
72125;SDS011;59999;51.676;22.650;2023-11-21T11:31:48;27.55;;;8.32;;
72125;SDS011;59999;51.676;22.650;2023-11-21T11:39:28;21.53;;;7.50;;
72125;SDS011;59999;51.676;22.650;2023-11-21T11:42:02;23.80;;;9.43;;
72125;SDS011;59999;51.676;22.650;2023-11-21T11:44:53;24.65;;;9.18;;
72125;SDS011;59999;51.676;22.650;2023-11-21T11:47:24;21.85;;;7.95;;
72125;SDS011;59999;51.676;22.650;2023-11-21T11:50:05;23.13;;;8.38;;
72125;SDS011;59999;51.676;22.650;2023-11-21T11:52:45;23.00;;;8.37;;
72125;SDS011;59999;51.676;22.650;2023-11-21T11:55:13;21.33;;;7.85;;
72125;SDS011;59999;51.676;22.650;2023-11-21T11:57:40;23.05;;;9.70;;
72125;SDS011;59999;51.676;22.650;2023-11-21T12:00:11;26.85;;;10.23;;
72125;SDS011;59999;51.676;22.650;2023-11-21T12:02:42;26.33;;;8.85;;
72125;SDS011;59999;51.676;22.650;2023-11-21T12:05:13;21.67;;;8.23;;
72125;SDS011;59999;51.676;22.650;2023-11-21T12:10:20;24.23;;;9.85;;
72125;SDS011;59999;51.676;22.650;2023-11-21T12:12:48;24.85;;;8.73;;
72125;SDS011;59999;51.676;22.650;2023-11-21T12:15:15;29.20;;;11.05;;
72125;SDS011;59999;51.676;22.650;2023-11-21T12:17:42;29.43;;;10.53;;
72125;SDS011;59999;51.676;22.650;2023-11-21T12:20:09;27.48;;;10.25;;
72125;SDS011;59999;51.676;22.650;2023-11-21T12:22:45;24.98;;;9.75;;
72125;SDS011;59999;51.676;22.650;2023-11-21T12:25:13;25.98;;;11.20;;
72125;SDS011;59999;51.676;22.650;2023-11-21T12:27:48;22.83;;;9.25;;
72125;SDS011;59999;51.676;22.650;2023-11-21T12:30:18;23.63;;;8.90;;
72125;SDS011;59999;51.676;22.650;2023-11-21T12:32:53;25.45;;;10.50;;
72125;SDS011;59999;51.676;22.650;2023-11-21T12:35:24;22.77;;;8.82;;
72125;SDS011;59999;51.676;22.650;2023-11-21T12:37:52;21.65;;;8.52;;
72125;SDS011;59999;51.676;22.650;2023-11-21T12:40:19;25.60;;;11.10;;
72125;SDS011;59999;51.676;22.650;2023-11-21T12:42:45;27.80;;;9.77;;
72125;SDS011;59999;51.676;22.650;2023-11-21T12:47:43;25.45;;;10.15;;
72125;SDS011;59999;51.676;22.650;2023-11-21T12:50:09;26.83;;;9.20;;
72125;SDS011;59999;51.676;22.650;2023-11-21T12:52:44;24.08;;;8.25;;
72125;SDS011;59999;51.676;22.650;2023-11-21T12:55:16;25.70;;;9.43;;
72125;SDS011;59999;51.676;22.650;2023-11-21T12:57:48;23.02;;;8.90;;
72125;SDS011;59999;51.676;22.650;2023-11-21T13:00:17;26.23;;;9.75;;
72125;SDS011;59999;51.676;22.650;2023-11-21T13:02:56;25.00;;;9.30;;
72125;SDS011;59999;51.676;22.650;2023-11-21T13:05:25;23.90;;;10.30;;
72125;SDS011;59999;51.676;22.650;2023-11-21T13:07:52;25.13;;;8.90;;
72125;SDS011;59999;51.676;22.650;2023-11-21T13:10:23;25.40;;;9.48;;
72125;SDS011;59999;51.676;22.650;2023-11-21T13:12:51;20.25;;;8.50;;
72125;SDS011;59999;51.676;22.650;2023-11-21T13:15:17;22.67;;;8.73;;
72125;SDS011;59999;51.676;22.650;2023-11-21T13:17:43;29.50;;;11.13;;
72125;SDS011;59999;51.676;22.650;2023-11-21T13:20:11;30.30;;;10.38;;
72125;SDS011;59999;51.676;22.650;2023-11-21T13:22:51;35.60;;;11.50;;
72125;SDS011;59999;51.676;22.650;2023-11-21T13:25:26;23.95;;;8.88;;
72125;SDS011;59999;51.676;22.650;2023-11-21T13:27:57;27.33;;;9.13;;
72125;SDS011;59999;51.676;22.650;2023-11-21T13:30:24;22.98;;;9.70;;
72125;SDS011;59999;51.676;22.650;2023-11-21T13:33:04;27.25;;;9.38;;
72125;SDS011;59999;51.676;22.650;2023-11-21T13:35:36;25.20;;;9.77;;
72125;SDS011;59999;51.676;22.650;2023-11-21T13:38:08;24.73;;;9.80;;
72125;SDS011;59999;51.676;22.650;2023-11-21T13:40:36;27.70;;;10.10;;
72125;SDS011;59999;51.676;22.650;2023-11-21T13:43:10;26.80;;;10.32;;
72125;SDS011;59999;51.676;22.650;2023-11-21T13:45:37;58.20;;;20.83;;
72125;SDS011;59999;51.676;22.650;2023-11-21T13:48:05;31.43;;;13.00;;
72125;SDS011;59999;51.676;22.650;2023-11-21T13:50:38;23.92;;;10.63;;
72125;SDS011;59999;51.676;22.650;2023-11-21T13:53:09;25.65;;;10.25;;
72125;SDS011;59999;51.676;22.650;2023-11-21T13:55:48;34.47;;;13.30;;
72125;SDS011;59999;51.676;22.650;2023-11-21T13:58:20;28.00;;;12.00;;
72125;SDS011;59999;51.676;22.650;2023-11-21T14:00:58;29.80;;;11.73;;
72125;SDS011;59999;51.676;22.650;2023-11-21T14:03:25;29.13;;;10.05;;
72125;SDS011;59999;51.676;22.650;2023-11-21T14:06:03;29.15;;;10.90;;
72125;SDS011;59999;51.676;22.650;2023-11-21T14:08:40;29.80;;;11.68;;
72125;SDS011;59999;51.676;22.650;2023-11-21T14:11:07;22.88;;;9.15;;
72125;SDS011;59999;51.676;22.650;2023-11-21T14:13:33;28.77;;;10.90;;
72125;SDS011;59999;51.676;22.650;2023-11-21T14:15:59;35.05;;;12.77;;
72125;SDS011;59999;51.676;22.650;2023-11-21T14:18:27;48.13;;;16.80;;
72125;SDS011;59999;51.676;22.650;2023-11-21T14:21:01;32.78;;;10.60;;
72125;SDS011;59999;51.676;22.650;2023-11-21T14:23:27;56.63;;;15.43;;
72125;SDS011;59999;51.676;22.650;2023-11-21T14:25:54;33.40;;;12.05;;
72125;SDS011;59999;51.676;22.650;2023-11-21T14:28:20;54.00;;;20.17;;
72125;SDS011;59999;51.676;22.650;2023-11-21T14:30:46;27.33;;;10.70;;
72125;SDS011;59999;51.676;22.650;2023-11-21T14:33:12;30.15;;;11.10;;
72125;SDS011;59999;51.676;22.650;2023-11-21T14:35:38;27.75;;;9.93;;
72125;SDS011;59999;51.676;22.650;2023-11-21T14:38:04;30.50;;;10.87;;